CheckWX is a tool to help pilots better visualize weather data.  It is not intended as a substitute for an official pre-flight weather briefing.

14:16:39 UTC

KBML METAR
Berlin Regional Airport
Berlin, New Hampshire, USA
Current

25 mins ago

KBML 221352Z AUTO 34005KT 10SM CLR 17/08 A3017 RMK AO2 SLP221 T01670083
Observed
Apr-22 @ 13:52 UTC
Wind
  • 340° at 5 KTS
Visibility
10 SM
Flight Rules
VFR
Cloud Levels
  • Clear skies
Temperature
17°C / 63°F
Dewpoint
C / 46°F
Humidity
56%
Altimeter
30.17" Hg
Pressure
1021.72 hPa
Previous

1 hour ago

KBML 221252Z AUTO 00000KT 10SM CLR 14/09 A3017 RMK AO2 SLP221 T01390089
Observed
Apr-22 @ 12:52 UTC
Visibility
10 SM
Flight Rules
VFR
Cloud Levels
  • Clear skies
Temperature
14°C / 57°F
Dewpoint
C / 48°F
Humidity
72%
Altimeter
30.17" Hg
Pressure
1021.72 hPa
Previous

2 hours ago

KBML 221152Z AUTO 35005KT 10SM SCT090 09/07 A3017 RMK AO2 SLP221 T00890067 10094 20039 50006
Observed
Apr-22 @ 11:52 UTC
Wind
  • 350° at 5 KTS
Visibility
10 SM
Flight Rules
VFR
Cloud Levels
  • Scattered at 9,000' AGL
Temperature
C / 48°F
Dewpoint
C / 45°F
Humidity
87%
Altimeter
30.17" Hg
Pressure
1021.72 hPa